Observation data for Guthrie on 08/13/2019      Previous  Date  Next       Current Mesonet Observations  Soil Data  Daily Summary Page  Observations in Plain Language
KPFS 130500Z 14007KT 32/13 A2985 RMK A01 T03150128  RH  033%=      5-min Rain = 0
KPFS 130505Z 14007KT 31/13 A2985 RMK A01 T03130129  RH  034%=      5-min Rain = 0
KPFS 130510Z 14007KT 31/13 A2985 RMK A01 T03100129  RH  034%=      5-min Rain = 0
KPFS 130515Z 14008KT 31/13 A2985 RMK A01 T03090129  RH  035%=      5-min Rain = 0
KPFS 130520Z 14008KT 31/13 A2985 RMK A01 T03080129  RH  035%=      5-min Rain = 0
KPFS 130525Z 14008KT 31/13 A2985 RMK A01 T03060129  RH  035%=      5-min Rain = 0
KPFS 130530Z 14008KT 31/13 A2985 RMK A01 T03050129  RH  035%=      5-min Rain = 0
KPFS 130535Z 13009KT 31/13 A2985 RMK A01 T03050129  RH  036%=      5-min Rain = 0
KPFS 130540Z 14009KT 30/13 A2985 RMK A01 T03040129  RH  036%=      5-min Rain = 0
KPFS 130545Z 14009KT 30/13 A2985 RMK A01 T03040129  RH  036%=      5-min Rain = 0
KPFS 130550Z 14008KT 30/13 A2985 RMK A01 T03030130  RH  036%=      5-min Rain = 0
KPFS 130555Z 13009KT 30/13 A2985 RMK A01 T03020130  RH  036%=      5-min Rain = 0
KPFS 130600Z 13008KT 30/13 A2985 RMK A01 T03010130  RH  037%=      5-min Rain = 0
KPFS 130605Z 13008KT 30/13 A2985 RMK A01 T03000131  RH  037%=      5-min Rain = 0
KPFS 130610Z 14007KT 30/13 A2985 RMK A01 T02990131  RH  037%=      5-min Rain = 0
KPFS 130615Z 13008KT 30/13 A2986 RMK A01 T02980132  RH  038%=      5-min Rain = 0
KPFS 130620Z 13007KT 30/13 A2986 RMK A01 T02980132  RH  038%=      5-min Rain = 0
KPFS 130625Z 12006KT 30/13 A2986 RMK A01 T02970133  RH  038%=      5-min Rain = 0
KPFS 130630Z 08005KT 30/13 A2987 RMK A01 T02970134  RH  038%=      5-min Rain = 0
KPFS 130635Z 01008KT 29/14 A2988 RMK A01 T02910135  RH  040%=      5-min Rain = 0
KPFS 130640Z 02010KT 29/14 A2988 RMK A01 T02930137  RH  040%=      5-min Rain = 0
KPFS 130645Z 02013KT 30/14 A2989 RMK A01 T02970141  RH  040%=      5-min Rain = 0
KPFS 130650Z 03011KT 30/15 A299 RMK A01 T03010146  RH  041%=      5-min Rain = 0
KPFS 130655Z 05008KT 30/15 A299 RMK A01 T03010151  RH  042%=      5-min Rain = 0
KPFS 130700Z 04012KT 30/15 A2989 RMK A01 T03010151  RH  042%=      5-min Rain = 0
KPFS 130705Z 04012KT 31/15 A2989 RMK A01 T03070147  RH  040%=      5-min Rain = 0
KPFS 130710Z 06008G13KT 30/15 A299 RMK A01 T03040152  RH  042%=      5-min Rain = 0
KPFS 130715Z 03005KT 30/15 A299 RMK A01 T03010151  RH  042%=      5-min Rain = 0
KPFS 130720Z 03011G16KT 30/16 A299 RMK A01 T02960160  RH  046%=      5-min Rain = 0
KPFS 130725Z 02009G14KT 28/17 A299 RMK A01 T02830170  RH  053%=      5-min Rain = 0
KPFS 130730Z 02010KT 28/17 A299 RMK A01 T02770171  RH  055%=      5-min Rain = 0
KPFS 130735Z 01013G19KT 27/18 A299 RMK A01 T02720175  RH  058%=      5-min Rain = 0
KPFS 130740Z 00013G21KT 26/18 A299 RMK A01 T02580184  RH  067%=      5-min Rain = 0
KPFS 130745Z 01012G18KT 25/19 A299 RMK A01 T02510186  RH  071%=      5-min Rain = 0
KPFS 130750Z 01012KT 25/19 A299 RMK A01 T02490188  RH  073%=      5-min Rain = 0
KPFS 130755Z 02010G16KT 25/19 A299 RMK A01 T02480188  RH  073%=      5-min Rain = 0
KPFS 130800Z 01011G17KT 25/19 A299 RMK A01 T02480188  RH  073%=      5-min Rain = 0
KPFS 130805Z 02011G17KT 25/19 A299 RMK A01 T02470189  RH  074%=      5-min Rain = 0
KPFS 130810Z 02011G17KT 25/19 A299 RMK A01 T02450190  RH  076%=      5-min Rain = 0
KPFS 130815Z 02011G16KT 24/19 A2991 RMK A01 T02440191  RH  076%=      5-min Rain = 0
KPFS 130820Z 02011G18KT 24/19 A2991 RMK A01 T02430191  RH  077%=      5-min Rain = 0
KPFS 130825Z 02013G18KT 24/19 A299 RMK A01 T02440192  RH  077%=      5-min Rain = 0
KPFS 130830Z 03014KT 24/19 A299 RMK A01 T02430191  RH  077%=      5-min Rain = 0
KPFS 130835Z 02012KT 24/19 A299 RMK A01 T02430191  RH  077%=      5-min Rain = 0
KPFS 130840Z 02013KT 24/19 A2991 RMK A01 T02430191  RH  077%=      5-min Rain = 0
KPFS 130845Z 02011KT 24/19 A2991 RMK A01 T02420191  RH  078%=      5-min Rain = 0
KPFS 130850Z 02012KT 24/19 A2991 RMK A01 T02410191  RH  078%=      5-min Rain = 0
KPFS 130855Z 02012KT 24/19 A2991 RMK A01 T02390192  RH  079%=      5-min Rain = 0
KPFS 130900Z 01011KT 24/19 A2991 RMK A01 T02380192  RH  080%=      5-min Rain = 0
KPFS 130905Z 01010KT 24/19 A2991 RMK A01 T02370192  RH  080%=      5-min Rain = 0
KPFS 130910Z 02012G17KT 24/19 A2991 RMK A01 T02360192  RH  080%=      5-min Rain = 0
KPFS 130915Z 03013KT 24/19 A299 RMK A01 T02360192  RH  081%=      5-min Rain = 0
KPFS 130920Z 04014G20KT 24/19 A299 RMK A01 T02370191  RH  080%=      5-min Rain = 0
KPFS 130925Z 04013G19KT 24/19 A299 RMK A01 T02390190  RH  078%=      5-min Rain = 0
KPFS 130930Z 02009G15KT 24/19 A2991 RMK A01 T02380190  RH  078%=      5-min Rain = 0
KPFS 130935Z 35008G13KT 24/19 A2992 RMK A01 T02380189  RH  078%=      5-min Rain = 0
KPFS 130940Z 35007KT 24/19 A2992 RMK A01 T02360189  RH  079%=      5-min Rain = 0
KPFS 130945Z 01009G14KT 24/19 A2992 RMK A01 T02370188  RH  078%=      5-min Rain = 0
KPFS 130950Z 01008G13KT 24/19 A2992 RMK A01 T02370187  RH  078%=      5-min Rain = 0
KPFS 130955Z 01009KT 24/19 A2992 RMK A01 T02350188  RH  079%=      5-min Rain = 0
KPFS 131000Z 02010KT 23/19 A2993 RMK A01 T02340188  RH  080%=      5-min Rain = 0
KPFS 131005Z 02009KT 23/19 A2993 RMK A01 T02330188  RH  080%=      5-min Rain = 0
KPFS 131010Z 01008KT 23/19 A2993 RMK A01 T02320188  RH  081%=      5-min Rain = 0
KPFS 131015Z 01009KT 23/19 A2993 RMK A01 T02300188  RH  081%=      5-min Rain = 0
KPFS 131020Z 01007KT 23/19 A2993 RMK A01 T02290188  RH  082%=      5-min Rain = 0
KPFS 131025Z 01009KT 23/19 A2993 RMK A01 T02290187  RH  082%=      5-min Rain = 0
KPFS 131030Z 02009KT 23/19 A2993 RMK A01 T02280187  RH  082%=      5-min Rain = 0
KPFS 131035Z 02009KT 23/19 A2993 RMK A01 T02270186  RH  082%=      5-min Rain = 0
KPFS 131040Z 02009KT 23/19 A2993 RMK A01 T02270186  RH  082%=      5-min Rain = 0
KPFS 131045Z 01007G12KT 23/19 A2993 RMK A01 T02260186  RH  082%=      5-min Rain = 0
KPFS 131050Z 00007KT 23/19 A2994 RMK A01 T02250185  RH  083%=      5-min Rain = 0
KPFS 131055Z 00005KT 22/19 A2994 RMK A01 T02240185  RH  083%=      5-min Rain = 0
KPFS 131100Z 01008KT 22/19 A2994 RMK A01 T02230185  RH  083%=      5-min Rain = 0
KPFS 131105Z 01009KT 22/19 A2994 RMK A01 T02230185  RH  083%=      5-min Rain = 0
KPFS 131110Z 02009KT 22/18 A2994 RMK A01 T02230184  RH  083%=      5-min Rain = 0
KPFS 131115Z 02008KT 22/18 A2994 RMK A01 T02220184  RH  083%=      5-min Rain = 0
KPFS 131120Z 02006KT 22/18 A2995 RMK A01 T02220184  RH  083%=      5-min Rain = 0
KPFS 131125Z 02005KT 22/18 A2995 RMK A01 T02220184  RH  083%=      5-min Rain = 0
KPFS 131130Z 01006KT 22/18 A2995 RMK A01 T02210184  RH  084%=      5-min Rain = 0
KPFS 131135Z 01005KT 22/18 A2995 RMK A01 T02210184  RH  084%=      5-min Rain = 0
KPFS 131140Z 01005KT 22/18 A2995 RMK A01 T02200184  RH  084%=      5-min Rain = 0
KPFS 131145Z 02006KT 22/18 A2995 RMK A01 T02190184  RH  084%=      5-min Rain = 0
KPFS 131150Z 03006KT 22/18 A2995 RMK A01 T02190184  RH  085%=      5-min Rain = 0
KPFS 131155Z 03007G12KT 22/18 A2995 RMK A01 T02190184  RH  085%=      5-min Rain = 0
KPFS 131200Z 04008KT 22/19 A2995 RMK A01 T02210185  RH  084%=      5-min Rain = 0
KPFS 131205Z 04009KT 22/19 A2995 RMK A01 T02220185  RH  084%=      5-min Rain = 0
KPFS 131210Z 04007KT 22/19 A2995 RMK A01 T02220186  RH  084%=      5-min Rain = 0
KPFS 131215Z 05008KT 22/19 A2995 RMK A01 T02220187  RH  085%=      5-min Rain = 0
KPFS 131220Z 04007KT 22/19 A2995 RMK A01 T02220188  RH  085%=      5-min Rain = 0
KPFS 131225Z 05008KT 22/19 A2996 RMK A01 T02230188  RH  085%=      5-min Rain = 0
KPFS 131230Z 06008KT 23/19 A2995 RMK A01 T02250189  RH  085%=      5-min Rain = 0
KPFS 131235Z 06009KT 23/19 A2995 RMK A01 T02270189  RH  084%=      5-min Rain = 0
KPFS 131240Z 06008KT 23/19 A2996 RMK A01 T02280190  RH  083%=      5-min Rain = 0
KPFS 131245Z 06007G12KT 23/19 A2996 RMK A01 T02300190  RH  083%=      5-min Rain = 0
KPFS 131250Z 06006KT 23/19 A2996 RMK A01 T02320191  RH  082%=      5-min Rain = 0
KPFS 131255Z 06007G12KT 24/19 A2996 RMK A01 T02350191  RH  081%=      5-min Rain = 0
KPFS 131300Z 06007G12KT 24/19 A2996 RMK A01 T02360191  RH  080%=      5-min Rain = 0
KPFS 131305Z 06009KT 24/19 A2997 RMK A01 T02380191  RH  079%=      5-min Rain = 0
KPFS 131310Z 06009KT 24/19 A2997 RMK A01 T02410191  RH  078%=      5-min Rain = 0
KPFS 131315Z 06009KT 24/19 A2997 RMK A01 T02430191  RH  077%=      5-min Rain = 0
KPFS 131320Z 06009G14KT 25/19 A2997 RMK A01 T02450191  RH  076%=      5-min Rain = 0
KPFS 131325Z 07008G13KT 25/19 A2997 RMK A01 T02470190  RH  075%=      5-min Rain = 0
KPFS 131330Z 06011G16KT 25/19 A2997 RMK A01 T02490189  RH  073%=      5-min Rain = 0
KPFS 131335Z 06012G18KT 25/19 A2997 RMK A01 T02520189  RH  072%=      5-min Rain = 0
KPFS 131340Z 06011G17KT 26/19 A2997 RMK A01 T02550188  RH  070%=      5-min Rain = 0
KPFS 131345Z 06012G19KT 26/19 A2998 RMK A01 T02570188  RH  069%=      5-min Rain = 0
KPFS 131350Z 06009G15KT 26/19 A2998 RMK A01 T02600188  RH  068%=      5-min Rain = 0
KPFS 131355Z 06012KT 26/19 A2998 RMK A01 T02640187  RH  066%=      5-min Rain = 0
KPFS 131400Z 06013KT 27/19 A2998 RMK A01 T02650186  RH  066%=      5-min Rain = 0
KPFS 131405Z 05012G18KT 27/19 A2998 RMK A01 T02670186  RH  065%=      5-min Rain = 0
KPFS 131410Z 06012G18KT 27/19 A2999 RMK A01 T02690186  RH  063%=      5-min Rain = 0
KPFS 131415Z 05013G20KT 27/19 A2999 RMK A01 T02710185  RH  063%=      5-min Rain = 0
KPFS 131420Z 05014G20KT 27/18 A2999 RMK A01 T02720183  RH  061%=      5-min Rain = 0
KPFS 131425Z 06013G19KT 27/18 A2999 RMK A01 T02740183  RH  060%=      5-min Rain = 0
KPFS 131430Z 06011G16KT 28/18 A2999 RMK A01 T02790183  RH  059%=      5-min Rain = 0
KPFS 131435Z 06011G18KT 28/18 A2999 RMK A01 T02810183  RH  058%=      5-min Rain = 0
KPFS 131440Z 05011G18KT 28/18 A2999 RMK A01 T02840183  RH  057%=      5-min Rain = 0
KPFS 131445Z 06014G19KT 28/18 A2999 RMK A01 T02830181  RH  057%=      5-min Rain = 0
KPFS 131450Z 06012G17KT 29/18 A2999 RMK A01 T02850181  RH  056%=      5-min Rain = 0
KPFS 131455Z 05013G18KT 29/18 A2999 RMK A01 T02860181  RH  056%=      5-min Rain = 0
KPFS 131500Z 06012G18KT 29/18 A2999 RMK A01 T02900181  RH  054%=      5-min Rain = 0
KPFS 131505Z 06011G16KT 29/18 A2999 RMK A01 T02910180  RH  054%=      5-min Rain = 0
KPFS 131510Z 05011G17KT 29/18 A2999 RMK A01 T02930179  RH  053%=      5-min Rain = 0
KPFS 131515Z 06012KT 29/18 A2999 RMK A01 T02930178  RH  053%=      5-min Rain = 0
KPFS 131520Z 07011KT 29/18 A2999 RMK A01 T02940179  RH  053%=      5-min Rain = 0
KPFS 131525Z 06009G14KT 30/18 A2999 RMK A01 T02980179  RH  051%=      5-min Rain = 0
KPFS 131530Z 05010G15KT 30/18 A30 RMK A01 T02990180  RH  051%=      5-min Rain = 0
KPFS 131535Z 05010KT 30/18 A30 RMK A01 T03000179  RH  051%=      5-min Rain = 0
KPFS 131540Z 04011G16KT 30/18 A30 RMK A01 T03010179  RH  051%=      5-min Rain = 0
KPFS 131545Z 04011KT 30/18 A30 RMK A01 T03020179  RH  050%=      5-min Rain = 0
KPFS 131550Z 06009G15KT 31/18 A30 RMK A01 T03050178  RH  049%=      5-min Rain = 0
KPFS 131555Z 06009KT 31/18 A30 RMK A01 T03060179  RH  049%=      5-min Rain = 0
KPFS 131600Z 07009G15KT 31/18 A30 RMK A01 T03080179  RH  049%=      5-min Rain = 0
KPFS 131605Z 06009G15KT 31/18 A3001 RMK A01 T03070179  RH  049%=      5-min Rain = 0
KPFS 131610Z 07010G15KT 31/18 A3001 RMK A01 T03070179  RH  049%=      5-min Rain = 0
KPFS 131615Z 05010G15KT 31/18 A3001 RMK A01 T03110180  RH  048%=      5-min Rain = 0
KPFS 131620Z 03011KT 31/18 A3001 RMK A01 T03090180  RH  048%=      5-min Rain = 0
KPFS 131625Z 05009G14KT 31/18 A3001 RMK A01 T03110181  RH  048%=      5-min Rain = 0
KPFS 131630Z 06010G16KT 31/18 A3001 RMK A01 T03120180  RH  048%=      5-min Rain = 0
KPFS 131635Z 03009KT 31/18 A3001 RMK A01 T03130179  RH  047%=      5-min Rain = 0
KPFS 131640Z 05010KT 31/18 A3001 RMK A01 T03140179  RH  047%=      5-min Rain = 0
KPFS 131645Z 05008KT 32/18 A3001 RMK A01 T03160179  RH  046%=      5-min Rain = 0
KPFS 131650Z 05006G12KT 32/18 A3001 RMK A01 T03200179  RH  045%=      5-min Rain = 0
KPFS 131655Z 07009G15KT 32/18 A3001 RMK A01 T03230177  RH  044%=      5-min Rain = 0
KPFS 131700Z 07008G13KT 32/18 A3001 RMK A01 T03240177  RH  044%=      5-min Rain = 0
KPFS 131705Z 05009KT 33/18 A3001 RMK A01 T03270177  RH  043%=      5-min Rain = 0
KPFS 131710Z 07007G13KT 32/18 A3001 RMK A01 T03240176  RH  044%=      5-min Rain = 0
KPFS 131715Z 07007KT 33/18 A3001 RMK A01 T03270175  RH  043%=      5-min Rain = 0
KPFS 131720Z 08009KT 33/18 A30 RMK A01 T03300176  RH  042%=      5-min Rain = 0
KPFS 131725Z 07009G15KT 33/18 A30 RMK A01 T03320178  RH  042%=      5-min Rain = 0
KPFS 131730Z 02009G14KT 33/18 A30 RMK A01 T03310179  RH  043%=      5-min Rain = 0
KPFS 131735Z 06006KT 33/18 A30 RMK A01 T03290178  RH  043%=      5-min Rain = 0
KPFS 131740Z 06009KT 34/18 A30 RMK A01 T03360178  RH  041%=      5-min Rain = 0
KPFS 131745Z 06008G13KT 34/18 A30 RMK A01 T03360177  RH  041%=      5-min Rain = 0
KPFS 131750Z 05009KT 34/18 A30 RMK A01 T03400177  RH  040%=      5-min Rain = 0
KPFS 131755Z 06007G12KT 34/18 A30 RMK A01 T03440176  RH  039%=      5-min Rain = 0
KPFS 131800Z 04010KT 34/18 A30 RMK A01 T03400176  RH  040%=      5-min Rain = 0
KPFS 131805Z 04008G15KT 34/17 A30 RMK A01 T03420174  RH  039%=      5-min Rain = 0
KPFS 131810Z 06008G14KT 34/17 A30 RMK A01 T03400172  RH  039%=      5-min Rain = 0
KPFS 131815Z 05008G13KT 35/18 A30 RMK A01 T03460176  RH  038%=      5-min Rain = 0
KPFS 131820Z 05008G15KT 35/17 A2999 RMK A01 T03450174  RH  038%=      5-min Rain = 0
KPFS 131825Z 05008G14KT 35/17 A2999 RMK A01 T03500174  RH  037%=      5-min Rain = 0
KPFS 131830Z 03008G16KT 34/17 A2999 RMK A01 T03430173  RH  038%=      5-min Rain = 0
KPFS 131835Z 02011KT 35/18 A2999 RMK A01 T03490175  RH  038%=      5-min Rain = 0
KPFS 131840Z 06008G13KT 35/18 A2999 RMK A01 T03520175  RH  037%=      5-min Rain = 0
KPFS 131845Z 08009G14KT 35/17 A2999 RMK A01 T03500172  RH  037%=      5-min Rain = 0
KPFS 131850Z 05011G16KT 35/17 A2999 RMK A01 T03460173  RH  038%=      5-min Rain = 0
KPFS 131855Z 02010G16KT 35/17 A2999 RMK A01 T03460172  RH  038%=      5-min Rain = 0
KPFS 131900Z 05008G14KT 35/17 A2999 RMK A01 T03490174  RH  037%=      5-min Rain = 0
KPFS 131905Z 07010G16KT 36/17 A2999 RMK A01 T03570174  RH  036%=      5-min Rain = 0
KPFS 131910Z 04008G14KT 35/17 A2999 RMK A01 T03500174  RH  037%=      5-min Rain = 0
KPFS 131915Z 05009G19KT 35/17 A2999 RMK A01 T03490171  RH  037%=      5-min Rain = 0
KPFS 131920Z 05010G19KT 36/17 A2999 RMK A01 T03590172  RH  035%=      5-min Rain = 0
KPFS 131925Z 05012KT 36/17 A2999 RMK A01 T03570169  RH  034%=      5-min Rain = 0
KPFS 131930Z 05008KT 36/17 A2998 RMK A01 T03580166  RH  034%=      5-min Rain = 0
KPFS 131935Z 06012G17KT 36/17 A2998 RMK A01 T03620170  RH  034%=      5-min Rain = 0
KPFS 131940Z 04012KT 35/17 A2998 RMK A01 T03510170  RH  036%=      5-min Rain = 0
KPFS 131945Z 05011G17KT 35/17 A2998 RMK A01 T03500171  RH  036%=      5-min Rain = 0
KPFS 131950Z 05009KT 36/17 A2998 RMK A01 T03610172  RH  035%=      5-min Rain = 0
KPFS 131955Z 07010KT 36/17 A2998 RMK A01 T03610168  RH  034%=      5-min Rain = 0
KPFS 132000Z 03012G17KT 36/17 A2998 RMK A01 T03580168  RH  034%=      5-min Rain = 0
KPFS 132005Z 05009G14KT 35/17 A2998 RMK A01 T03490167  RH  036%=      5-min Rain = 0
KPFS 132010Z 03012G19KT 35/17 A2998 RMK A01 T03530170  RH  036%=      5-min Rain = 0
KPFS 132015Z 03010G15KT 35/17 A2998 RMK A01 T03510169  RH  036%=      5-min Rain = 0
KPFS 132020Z 04010G16KT 35/17 A2997 RMK A01 T03510167  RH  035%=      5-min Rain = 0
KPFS 132025Z 05010KT 36/17 A2997 RMK A01 T03640169  RH  033%=      5-min Rain = 0
KPFS 132030Z 04009G17KT 37/17 A2997 RMK A01 T03680166  RH  032%=      5-min Rain = 0
KPFS 132035Z 05009G16KT 36/17 A2997 RMK A01 T03620167  RH  033%=      5-min Rain = 0
KPFS 132040Z 08010G17KT 36/17 A2997 RMK A01 T03620167  RH  033%=      5-min Rain = 0
KPFS 132045Z 07008KT 36/16 A2997 RMK A01 T03630164  RH  032%=      5-min Rain = 0
KPFS 132050Z 04010G17KT 36/17 A2997 RMK A01 T03630167  RH  033%=      5-min Rain = 0
KPFS 132055Z 03013G18KT 36/17 A2997 RMK A01 T03570167  RH  034%=      5-min Rain = 0
KPFS 132100Z 05012G17KT 35/17 A2997 RMK A01 T03530165  RH  034%=      5-min Rain = 0
KPFS 132105Z 05009G17KT 36/17 A2996 RMK A01 T03620166  RH  033%=      5-min Rain = 0
KPFS 132110Z 06011G17KT 36/16 A2996 RMK A01 T03600163  RH  033%=      5-min Rain = 0
KPFS 132115Z 05009G14KT 36/16 A2996 RMK A01 T03630163  RH  032%=      5-min Rain = 0
KPFS 132120Z 05010G16KT 36/16 A2996 RMK A01 T03630164  RH  032%=      5-min Rain = 0
KPFS 132125Z 05013KT 37/17 A2996 RMK A01 T03660170  RH  033%=      5-min Rain = 0
KPFS 132130Z 05014KT 36/17 A2996 RMK A01 T03560170  RH  035%=      5-min Rain = 0
KPFS 132135Z 05009G14KT 36/17 A2996 RMK A01 T03600169  RH  034%=      5-min Rain = 0
KPFS 132140Z 05011G18KT 36/17 A2996 RMK A01 T03620171  RH  034%=      5-min Rain = 0
KPFS 132145Z 06013G20KT 35/17 A2996 RMK A01 T03510172  RH  036%=      5-min Rain = 0
KPFS 132150Z 06010G15KT 36/18 A2996 RMK A01 T03560175  RH  036%=      5-min Rain = 0
KPFS 132155Z 04013G18KT 36/18 A2995 RMK A01 T03620175  RH  035%=      5-min Rain = 0
KPFS 132200Z 05011G17KT 36/17 A2995 RMK A01 T03630173  RH  034%=      5-min Rain = 0
KPFS 132205Z 05013KT 36/17 A2995 RMK A01 T03640171  RH  034%=      5-min Rain = 0
KPFS 132210Z 03010G15KT 36/17 A2995 RMK A01 T03620169  RH  034%=      5-min Rain = 0
KPFS 132215Z 05010G17KT 37/17 A2995 RMK A01 T03650170  RH  033%=      5-min Rain = 0
KPFS 132220Z 05014KT 36/17 A2995 RMK A01 T03620172  RH  034%=      5-min Rain = 0
KPFS 132225Z 03010G15KT 36/17 A2994 RMK A01 T03590171  RH  035%=      5-min Rain = 0
KPFS 132230Z 04011G18KT 35/17 A2994 RMK A01 T03510169  RH  036%=      5-min Rain = 0
KPFS 132235Z 06012G17KT 36/17 A2994 RMK A01 T03570169  RH  035%=      5-min Rain = 0
KPFS 132240Z 05009G15KT 36/17 A2994 RMK A01 T03570171  RH  035%=      5-min Rain = 0
KPFS 132245Z 04012KT 36/17 A2994 RMK A01 T03580172  RH  035%=      5-min Rain = 0
KPFS 132250Z 04010KT 36/17 A2994 RMK A01 T03560172  RH  035%=      5-min Rain = 0
KPFS 132255Z 04010KT 36/17 A2994 RMK A01 T03550171  RH  035%=      5-min Rain = 0
KPFS 132300Z 04009G14KT 36/17 A2994 RMK A01 T03570170  RH  035%=      5-min Rain = 0
KPFS 132305Z 03008KT 36/17 A2994 RMK A01 T03560169  RH  035%=      5-min Rain = 0
KPFS 132310Z 04008G13KT 36/17 A2994 RMK A01 T03560168  RH  035%=      5-min Rain = 0
KPFS 132315Z 08009KT 35/17 A2994 RMK A01 T03530169  RH  035%=      5-min Rain = 0
KPFS 132320Z 05008G14KT 35/17 A2994 RMK A01 T03480170  RH  037%=      5-min Rain = 0
KPFS 132325Z 05008KT 35/17 A2994 RMK A01 T03530170  RH  036%=      5-min Rain = 0
KPFS 132330Z 05008KT 35/17 A2994 RMK A01 T03530170  RH  036%=      5-min Rain = 0
KPFS 132335Z 04008KT 35/17 A2994 RMK A01 T03480170  RH  037%=      5-min Rain = 0
KPFS 132340Z 06009G14KT 35/17 A2994 RMK A01 T03480171  RH  037%=      5-min Rain = 0
KPFS 132345Z 07010KT 35/17 A2994 RMK A01 T03510172  RH  036%=      5-min Rain = 0
KPFS 132350Z 05010KT 35/17 A2994 RMK A01 T03470171  RH  037%=      5-min Rain = 0
KPFS 132355Z 08010KT 35/17 A2994 RMK A01 T03460171  RH  037%=      5-min Rain = 0
KPFS 140000Z 07008KT 35/17 A2995 RMK A01 T03450170  RH  037%=      5-min Rain = 0
KPFS 140005Z 06009KT 35/17 A2994 RMK A01 T03490171  RH  037%=      5-min Rain = 0
KPFS 140010Z 06009G14KT 35/17 A2994 RMK A01 T03450172  RH  038%=      5-min Rain = 0
KPFS 140015Z 05008G13KT 34/17 A2995 RMK A01 T03430173  RH  038%=      5-min Rain = 0
KPFS 140020Z 06009KT 34/17 A2995 RMK A01 T03430173  RH  038%=      5-min Rain = 0
KPFS 140025Z 07008KT 34/17 A2995 RMK A01 T03410172  RH  039%=      5-min Rain = 0
KPFS 140030Z 07009KT 34/17 A2995 RMK A01 T03400172  RH  039%=      5-min Rain = 0
KPFS 140035Z 06009KT 34/17 A2995 RMK A01 T03390174  RH  039%=      5-min Rain = 0
KPFS 140040Z 07008KT 34/17 A2995 RMK A01 T03380173  RH  039%=      5-min Rain = 0
KPFS 140045Z 05007KT 34/17 A2996 RMK A01 T03370174  RH  040%=      5-min Rain = 0
KPFS 140050Z 04009G14KT 34/17 A2996 RMK A01 T03350173  RH  040%=      5-min Rain = 0
KPFS 140055Z 06008KT 33/17 A2996 RMK A01 T03330173  RH  040%=      5-min Rain = 0
KPFS 140100Z 05008KT 33/17 A2996 RMK A01 T03300171  RH  041%=      5-min Rain = 0
KPFS 140105Z 05009KT 33/17 A2997 RMK A01 T03280171  RH  041%=      5-min Rain = 0
KPFS 140110Z 05010KT 33/17 A2997 RMK A01 T03260170  RH  041%=      5-min Rain = 0
KPFS 140115Z 06009KT 32/17 A2997 RMK A01 T03240171  RH  042%=      5-min Rain = 0
KPFS 140120Z 05008KT 32/17 A2997 RMK A01 T03220171  RH  043%=      5-min Rain = 0
KPFS 140125Z 05008KT 32/17 A2998 RMK A01 T03200171  RH  043%=      5-min Rain = 0
KPFS 140130Z 05008KT 32/17 A2998 RMK A01 T03180171  RH  043%=      5-min Rain = 0
KPFS 140135Z 05008KT 32/17 A2998 RMK A01 T03170171  RH  044%=      5-min Rain = 0
KPFS 140140Z 05009KT 32/17 A2998 RMK A01 T03150171  RH  044%=      5-min Rain = 0
KPFS 140145Z 05008KT 31/17 A2998 RMK A01 T03130171  RH  045%=      5-min Rain = 0
KPFS 140150Z 05007KT 31/17 A2998 RMK A01 T03110172  RH  045%=      5-min Rain = 0
KPFS 140155Z 05007KT 31/17 A2998 RMK A01 T03100172  RH  046%=      5-min Rain = 0
KPFS 140200Z 04006KT 31/17 A2998 RMK A01 T03080172  RH  046%=      5-min Rain = 0
KPFS 140205Z 04007KT 31/17 A2998 RMK A01 T03070172  RH  047%=      5-min Rain = 0
KPFS 140210Z 04007KT 31/17 A2999 RMK A01 T03050172  RH  047%=      5-min Rain = 0
KPFS 140215Z 04007KT 30/17 A2999 RMK A01 T03040172  RH  048%=      5-min Rain = 0
KPFS 140220Z 04006KT 30/17 A2999 RMK A01 T03030172  RH  048%=      5-min Rain = 0
KPFS 140225Z 04007KT 30/17 A30 RMK A01 T03020172  RH  048%=      5-min Rain = 0
KPFS 140230Z 04007KT 30/17 A30 RMK A01 T03000173  RH  049%=      5-min Rain = 0
KPFS 140235Z 04006KT 30/17 A3001 RMK A01 T02990173  RH  049%=      5-min Rain = 0
KPFS 140240Z 04007KT 30/17 A3001 RMK A01 T02980173  RH  050%=      5-min Rain = 0
KPFS 140245Z 04006KT 30/17 A3002 RMK A01 T02970174  RH  050%=      5-min Rain = 0
KPFS 140250Z 04006KT 30/17 A3002 RMK A01 T02960174  RH  051%=      5-min Rain = 0
KPFS 140255Z 04006KT 29/17 A3002 RMK A01 T02940174  RH  051%=      5-min Rain = 0
KPFS 140300Z 05006KT 29/17 A3002 RMK A01 T02940174  RH  051%=      5-min Rain = 0
KPFS 140305Z 05006KT 29/18 A3002 RMK A01 T02920175  RH  052%=      5-min Rain = 0
KPFS 140310Z 04005KT 29/18 A3002 RMK A01 T02900175  RH  052%=      5-min Rain = 0
KPFS 140315Z 04005KT 29/18 A3002 RMK A01 T02870175  RH  053%=      5-min Rain = 0
KPFS 140320Z 03005KT 29/18 A3003 RMK A01 T02850175  RH  054%=      5-min Rain = 0
KPFS 140325Z 04006KT 28/17 A3003 RMK A01 T02830174  RH  054%=      5-min Rain = 0
KPFS 140330Z 04006KT 28/17 A3003 RMK A01 T02840174  RH  054%=      5-min Rain = 0
KPFS 140335Z 04006KT 28/17 A3003 RMK A01 T02840174  RH  054%=      5-min Rain = 0
KPFS 140340Z 04006KT 28/17 A3003 RMK A01 T02830173  RH  054%=      5-min Rain = 0
KPFS 140345Z 04006KT 28/17 A3003 RMK A01 T02820173  RH  054%=      5-min Rain = 0
KPFS 140350Z 04006KT 28/17 A3004 RMK A01 T02810174  RH  055%=      5-min Rain = 0
KPFS 140355Z 05006KT 28/17 A3004 RMK A01 T02800174  RH  055%=      5-min Rain = 0
KPFS 140400Z 05005KT 28/17 A3004 RMK A01 T02790174  RH  056%=      5-min Rain = 0
KPFS 140405Z 05006KT 28/18 A3004 RMK A01 T02790175  RH  056%=      5-min Rain = 0
KPFS 140410Z 05006KT 28/18 A3004 RMK A01 T02780175  RH  056%=      5-min Rain = 0
KPFS 140415Z 04006KT 28/18 A3004 RMK A01 T02780175  RH  056%=      5-min Rain = 0
KPFS 140420Z 03006KT 28/18 A3005 RMK A01 T02770175  RH  057%=      5-min Rain = 0
KPFS 140425Z 04006KT 28/18 A3005 RMK A01 T02760176  RH  057%=      5-min Rain = 0
KPFS 140430Z 05006KT 28/18 A3004 RMK A01 T02760176  RH  057%=      5-min Rain = 0
KPFS 140435Z 05006KT 28/18 A3005 RMK A01 T02760176  RH  057%=      5-min Rain = 0
KPFS 140440Z 05007KT 28/18 A3005 RMK A01 T02770177  RH  057%=      5-min Rain = 0
KPFS 140445Z 05008KT 28/18 A3004 RMK A01 T02800177  RH  057%=      5-min Rain = 0
KPFS 140450Z 05008KT 28/18 A3004 RMK A01 T02800178  RH  057%=      5-min Rain = 0
KPFS 140455Z 06008KT 28/18 A3004 RMK A01 T02810178  RH  057%=      5-min Rain = 0

Page generated in 0.0225 seconds.